createdAt,value
2017-09-24T00:01:00.618Z,15.8
2017-09-24T00:02:01.277Z,15.9
2017-09-24T00:03:01.988Z,15.9
2017-09-24T00:04:02.645Z,15.8
2017-09-24T00:05:03.301Z,15.9
2017-09-24T00:06:03.958Z,15.9
2017-09-24T00:07:04.617Z,15.8
2017-09-24T00:08:05.326Z,15.8
2017-09-24T00:09:05.988Z,15.9
2017-09-24T00:10:06.642Z,15.8
2017-09-24T00:11:07.301Z,15.7
2017-09-24T00:12:07.961Z,15.8
2017-09-24T00:13:08.669Z,15.8
2017-09-24T00:14:09.326Z,15.8
2017-09-24T00:15:09.982Z,15.8
2017-09-24T00:16:10.641Z,15.8
2017-09-24T00:17:11.297Z,15.8
2017-09-24T00:18:12.007Z,15.8
2017-09-24T00:19:12.666Z,15.8
2017-09-24T00:20:13.327Z,15.7
2017-09-24T00:21:13.982Z,15.7
2017-09-24T00:22:14.638Z,15.8
2017-09-24T00:23:15.347Z,15.7
2017-09-24T00:24:16.007Z,15.7
2017-09-24T00:25:16.701Z,15.7
2017-09-24T00:26:17.358Z,15.7
2017-09-24T00:27:18.017Z,15.6
2017-09-24T00:28:18.726Z,15.6
2017-09-24T00:29:19.419Z,15.7
2017-09-24T00:30:20.077Z,15.6
2017-09-24T00:31:20.735Z,15.6
2017-09-24T00:32:21.393Z,15.5
2017-09-24T00:33:22.100Z,15.6
2017-09-24T00:34:22.758Z,15.6
2017-09-24T00:35:23.416Z,15.6
2017-09-24T00:36:24.073Z,15.6
2017-09-24T00:37:24.733Z,15.6
2017-09-24T00:38:25.439Z,15.7
2017-09-24T00:39:26.103Z,15.6
2017-09-24T00:40:26.788Z,15.7
2017-09-24T00:41:27.447Z,15.6
2017-09-24T00:42:28.104Z,15.6
2017-09-24T00:43:28.814Z,15.5
2017-09-24T00:44:29.471Z,15.6
2017-09-24T00:45:30.131Z,15.6
2017-09-24T00:46:30.791Z,15.5
2017-09-24T00:47:31.448Z,15.6
2017-09-24T00:48:32.155Z,15.6
2017-09-24T00:49:32.813Z,15.6
2017-09-24T00:50:33.470Z,15.6
2017-09-24T00:51:34.131Z,15.6
2017-09-24T00:52:34.787Z,15.5
2017-09-24T00:53:35.496Z,15.5
2017-09-24T00:54:36.154Z,15.4
2017-09-24T00:55:36.811Z,15.5
2017-09-24T00:56:37.470Z,15.4
2017-09-24T00:57:38.126Z,15.4
2017-09-24T00:58:38.834Z,15.4
2017-09-24T00:59:39.492Z,15.4
2017-09-24T01:00:40.149Z,15.4
2017-09-24T01:01:40.809Z,15.4
2017-09-24T01:02:41.464Z,15.3
2017-09-24T01:03:42.173Z,15.4
2017-09-24T01:04:42.831Z,15.4
2017-09-24T01:05:43.488Z,15.4
2017-09-24T01:06:44.146Z,15.4
2017-09-24T01:07:44.803Z,15.4
2017-09-24T01:08:45.511Z,15.3
2017-09-24T01:09:46.205Z,15.4
2017-09-24T01:10:46.864Z,15.3
2017-09-24T01:11:47.520Z,15.3
2017-09-24T01:12:48.179Z,15.4
2017-09-24T01:13:48.887Z,15.3
2017-09-24T01:14:49.543Z,15.3
2017-09-24T01:15:50.202Z,15.3
2017-09-24T01:16:50.858Z,15.3
2017-09-24T01:17:51.516Z,15.3
2017-09-24T01:18:52.223Z,15.3
2017-09-24T01:19:52.881Z,15.4
2017-09-24T01:20:53.540Z,15.4
2017-09-24T01:21:54.197Z,15.3
2017-09-24T01:22:54.855Z,15.3
2017-09-24T01:23:55.561Z,15.3
2017-09-24T01:24:56.219Z,15.3
2017-09-24T01:25:56.878Z,15.3
2017-09-24T01:26:57.534Z,15.4
2017-09-24T01:27:58.192Z,15.3
2017-09-24T01:28:59.100Z,15.4
2017-09-24T01:29:59.757Z,15.4
2017-09-24T01:31:00.416Z,15.4
2017-09-24T01:32:01.072Z,15.3
2017-09-24T01:33:01.737Z,15.3
2017-09-24T01:34:02.477Z,15.3
2017-09-24T01:35:03.135Z,15.3
2017-09-24T01:36:03.794Z,15.3
2017-09-24T01:37:04.452Z,15.3
2017-09-24T01:38:05.110Z,15.4
2017-09-24T01:39:05.818Z,15.3
2017-09-24T01:40:06.473Z,15.3
2017-09-24T01:41:07.132Z,15.3
2017-09-24T01:42:07.790Z,15.3
2017-09-24T01:43:08.449Z,15.4
2017-09-24T01:44:09.156Z,15.3
2017-09-24T01:45:09.813Z,15.3
2017-09-24T01:46:10.506Z,15.3
2017-09-24T01:47:11.164Z,15.2
2017-09-24T01:48:11.821Z,15.3
2017-09-24T01:49:12.529Z,15.3
2017-09-24T01:50:13.187Z,15.2
2017-09-24T01:51:13.844Z,15.3
2017-09-24T01:52:14.504Z,15.3
2017-09-24T01:53:15.160Z,15.3
2017-09-24T01:54:15.868Z,15.3
2017-09-24T01:55:16.526Z,15.4
2017-09-24T01:56:17.184Z,15.4
2017-09-24T01:57:17.926Z,15.3
2017-09-24T01:58:18.515Z,15.3
2017-09-24T01:59:19.256Z,15.4
2017-09-24T02:00:19.914Z,15.3
2017-09-24T02:01:20.571Z,15.3
2017-09-24T02:02:21.230Z,15.3
2017-09-24T02:03:21.887Z,15.3
2017-09-24T02:04:22.595Z,15.2
2017-09-24T02:05:23.258Z,15.1
2017-09-24T02:06:23.909Z,15.1
2017-09-24T02:07:24.567Z,15.2
2017-09-24T02:08:25.224Z,15.1
2017-09-24T02:09:25.931Z,15.1
2017-09-24T02:10:26.590Z,15.2
2017-09-24T02:11:27.246Z,15.1
2017-09-24T02:12:27.905Z,15.1
2017-09-24T02:13:28.562Z,15.2
2017-09-24T02:14:29.269Z,15.1
2017-09-24T02:15:29.927Z,15.1
2017-09-24T02:16:30.585Z,15.1
2017-09-24T02:17:31.244Z,15.2
2017-09-24T02:18:31.900Z,15.1
2017-09-24T02:19:32.609Z,15.1
2017-09-24T02:20:33.268Z,15.1
2017-09-24T02:21:33.925Z,15.2
2017-09-24T02:22:34.583Z,15.1
2017-09-24T02:23:35.242Z,15.1
2017-09-24T02:24:35.948Z,15.2
2017-09-24T02:25:36.606Z,15.2
2017-09-24T02:26:37.262Z,15.1
2017-09-24T02:27:37.923Z,15.1
2017-09-24T02:28:38.583Z,15.2
2017-09-24T02:29:39.288Z,15.1
2017-09-24T02:30:39.947Z,15.1
2017-09-24T02:31:40.603Z,15.0
2017-09-24T02:32:41.263Z,15.0
2017-09-24T02:33:41.919Z,14.9
2017-09-24T02:34:42.625Z,15.0
2017-09-24T02:35:43.284Z,15.0
2017-09-24T02:36:43.941Z,15.1
2017-09-24T02:37:44.600Z,15.1
2017-09-24T02:38:45.256Z,15.0
2017-09-24T02:39:45.964Z,15.0
2017-09-24T02:40:46.622Z,15.1
2017-09-24T02:41:47.281Z,15.0
2017-09-24T02:42:47.937Z,15.0
2017-09-24T02:43:48.594Z,15.0
2017-09-24T02:44:49.302Z,15.0
2017-09-24T02:45:49.959Z,15.0
2017-09-24T02:46:50.618Z,14.9
2017-09-24T02:47:51.274Z,15.0
2017-09-24T02:48:51.930Z,15.0
2017-09-24T02:49:52.687Z,15.0
2017-09-24T02:50:53.344Z,14.9
2017-09-24T02:51:54.003Z,15.0
2017-09-24T02:52:54.662Z,14.9
2017-09-24T02:53:55.354Z,15.0
2017-09-24T02:54:56.061Z,14.9
2017-09-24T02:55:56.757Z,14.9
2017-09-24T02:56:57.417Z,14.8
2017-09-24T02:57:58.074Z,14.9
2017-09-24T02:58:58.731Z,14.9
2017-09-24T02:59:59.438Z,14.9
2017-09-24T03:01:00.097Z,14.8
2017-09-24T03:02:00.756Z,14.8
2017-09-24T03:03:01.413Z,14.7
2017-09-24T03:04:02.071Z,14.7
2017-09-24T03:05:02.781Z,14.7
2017-09-24T03:06:03.438Z,14.8
2017-09-24T03:07:04.131Z,14.8
2017-09-24T03:08:04.788Z,14.7
2017-09-24T03:09:05.444Z,14.7
2017-09-24T03:10:06.155Z,14.7
2017-09-24T03:11:06.847Z,14.8
2017-09-24T03:12:07.503Z,14.8
2017-09-24T03:13:08.162Z,14.8
2017-09-24T03:14:08.820Z,14.7
2017-09-24T03:15:09.529Z,14.7
2017-09-24T03:16:10.188Z,14.7
2017-09-24T03:17:10.879Z,14.7
2017-09-24T03:18:11.536Z,14.6
2017-09-24T03:19:12.193Z,14.6
2017-09-24T03:20:12.900Z,14.6
2017-09-24T03:21:13.557Z,14.6
2017-09-24T03:22:14.243Z,14.7
2017-09-24T03:23:14.872Z,14.6
2017-09-24T03:24:15.530Z,14.7
2017-09-24T03:25:16.236Z,14.7
2017-09-24T03:26:16.900Z,14.7
2017-09-24T03:27:17.551Z,14.7
2017-09-24T03:28:18.208Z,14.6
2017-09-24T03:29:18.866Z,14.6
2017-09-24T03:30:19.582Z,14.6
2017-09-24T03:31:20.265Z,14.7
2017-09-24T03:32:20.923Z,14.6
2017-09-24T03:33:21.581Z,14.6
2017-09-24T03:34:22.237Z,14.6
2017-09-24T03:35:22.944Z,14.5
2017-09-24T03:36:23.603Z,14.6
2017-09-24T03:37:24.261Z,14.5
2017-09-24T03:38:24.919Z,14.5
2017-09-24T03:39:25.575Z,14.5
2017-09-24T03:40:26.283Z,14.4
2017-09-24T03:41:26.940Z,14.5
2017-09-24T03:42:27.598Z,14.4
2017-09-24T03:43:28.257Z,14.5
2017-09-24T03:44:28.915Z,14.5
2017-09-24T03:45:29.623Z,14.4
2017-09-24T03:46:30.280Z,14.4
2017-09-24T03:47:30.939Z,14.4
2017-09-24T03:48:31.598Z,14.4
2017-09-24T03:49:32.255Z,14.3
2017-09-24T03:50:32.998Z,14.4
2017-09-24T03:51:33.653Z,14.3
2017-09-24T03:52:34.312Z,14.3
2017-09-24T03:53:34.968Z,14.3
2017-09-24T03:54:35.625Z,14.3
2017-09-24T03:55:36.583Z,14.2
2017-09-24T03:56:37.246Z,14.2
2017-09-24T03:57:37.934Z,14.3
2017-09-24T03:58:38.592Z,14.3
2017-09-24T03:59:39.248Z,14.3
2017-09-24T04:00:39.957Z,14.2
2017-09-24T04:01:40.616Z,14.2
2017-09-24T04:02:41.272Z,14.3
2017-09-24T04:03:41.929Z,14.1
2017-09-24T04:04:42.586Z,14.1
2017-09-24T04:05:43.294Z,14.1
2017-09-24T04:06:43.952Z,14.1
2017-09-24T04:07:44.612Z,14.1
2017-09-24T04:08:45.266Z,14.1
2017-09-24T04:09:45.922Z,13.9
2017-09-24T04:10:46.634Z,14.0
2017-09-24T04:11:47.286Z,14.0
2017-09-24T04:12:47.944Z,14.0
2017-09-24T04:13:48.600Z,14.0
2017-09-24T04:14:49.256Z,14.0
2017-09-24T04:15:49.963Z,14.0
2017-09-24T04:16:50.619Z,13.9
2017-09-24T04:17:51.277Z,13.9
2017-09-24T04:18:51.933Z,13.9
2017-09-24T04:19:52.591Z,13.8
2017-09-24T04:20:53.298Z,13.9
2017-09-24T04:21:53.954Z,13.8
2017-09-24T04:22:54.611Z,13.8
2017-09-24T04:23:55.270Z,13.8
2017-09-24T04:24:55.926Z,13.8
2017-09-24T04:25:56.632Z,13.8
2017-09-24T04:26:57.288Z,13.7
2017-09-24T04:27:57.945Z,13.7
2017-09-24T04:28:58.602Z,13.7
2017-09-24T04:29:59.260Z,13.7
2017-09-24T04:31:00.016Z,13.7
2017-09-24T04:32:00.673Z,13.7
2017-09-24T04:33:01.332Z,13.7
2017-09-24T04:34:01.988Z,13.7
2017-09-24T04:35:02.648Z,13.7
2017-09-24T04:36:03.353Z,13.7
2017-09-24T04:37:04.010Z,13.6
2017-09-24T04:38:04.667Z,13.7
2017-09-24T04:39:05.360Z,13.7
2017-09-24T04:40:06.018Z,13.6
2017-09-24T04:41:06.726Z,13.6
2017-09-24T04:42:07.383Z,13.6
2017-09-24T04:43:08.039Z,13.7
2017-09-24T04:44:08.697Z,13.8
2017-09-24T04:45:09.355Z,13.7
2017-09-24T04:46:10.063Z,13.6
2017-09-24T04:47:10.716Z,13.7
2017-09-24T04:48:11.373Z,13.7
2017-09-24T04:49:12.031Z,13.6
2017-09-24T04:50:12.690Z,13.7
2017-09-24T04:51:13.397Z,13.7
2017-09-24T04:52:14.055Z,13.7
2017-09-24T04:53:14.714Z,13.8
2017-09-24T04:54:15.371Z,13.7
2017-09-24T04:55:16.030Z,13.8
2017-09-24T04:56:16.745Z,13.8
2017-09-24T04:57:17.431Z,13.8
2017-09-24T04:58:18.090Z,13.9
2017-09-24T04:59:18.746Z,13.9
2017-09-24T05:00:19.495Z,13.9
2017-09-24T05:01:20.136Z,13.9
2017-09-24T05:02:20.790Z,13.9
2017-09-24T05:03:21.448Z,14.0
2017-09-24T05:04:22.105Z,14.0
2017-09-24T05:05:22.762Z,14.0
2017-09-24T05:06:23.471Z,14.0
2017-09-24T05:07:24.130Z,14.0
2017-09-24T05:08:24.790Z,14.0
2017-09-24T05:09:25.447Z,14.0
2017-09-24T05:10:26.106Z,14.0
2017-09-24T05:11:26.812Z,14.1
2017-09-24T05:12:27.474Z,14.1
2017-09-24T05:13:28.132Z,14.1
2017-09-24T05:14:28.790Z,14.1
2017-09-24T05:15:29.447Z,14.1
2017-09-24T05:16:30.157Z,14.2
2017-09-24T05:17:30.817Z,14.1
2017-09-24T05:18:31.477Z,14.1
2017-09-24T05:19:32.139Z,14.1
2017-09-24T05:20:32.801Z,14.2
2017-09-24T05:21:33.509Z,14.1
2017-09-24T05:22:34.170Z,14.2
2017-09-24T05:23:34.864Z,14.1
2017-09-24T05:24:35.524Z,14.3
2017-09-24T05:25:36.223Z,14.3
2017-09-24T05:26:36.932Z,14.2
2017-09-24T05:27:37.591Z,14.2
2017-09-24T05:28:38.251Z,14.2
2017-09-24T05:29:38.911Z,14.3
2017-09-24T05:30:39.570Z,14.3
2017-09-24T05:31:40.282Z,14.2
2017-09-24T05:32:40.943Z,14.2
2017-09-24T05:33:41.605Z,14.2
2017-09-24T05:34:42.264Z,14.2
2017-09-24T05:35:42.924Z,14.3
2017-09-24T05:36:43.635Z,14.3
2017-09-24T05:37:44.330Z,14.3
2017-09-24T05:38:44.990Z,14.3
2017-09-24T05:39:45.653Z,14.3
2017-09-24T05:40:46.312Z,14.4
2017-09-24T05:41:47.072Z,14.4
2017-09-24T05:42:47.732Z,14.3
2017-09-24T05:43:48.391Z,14.5
2017-09-24T05:44:49.051Z,14.4
2017-09-24T05:45:49.714Z,14.3
2017-09-24T05:46:50.672Z,14.5
2017-09-24T05:47:51.334Z,14.5
2017-09-24T05:48:51.994Z,14.4
2017-09-24T05:49:52.653Z,14.4
2017-09-24T05:50:53.318Z,14.5
2017-09-24T05:51:54.026Z,14.5
2017-09-24T05:52:54.723Z,14.5
2017-09-24T05:53:55.384Z,14.5
2017-09-24T05:54:56.043Z,14.5
2017-09-24T05:55:56.703Z,14.4
2017-09-24T05:56:57.414Z,14.5
2017-09-24T05:57:58.075Z,14.5
2017-09-24T05:58:58.735Z,14.7
2017-09-24T05:59:59.396Z,14.6
2017-09-24T06:01:00.057Z,14.6
2017-09-24T06:02:00.767Z,14.6
2017-09-24T06:03:01.428Z,14.6
2017-09-24T06:04:02.089Z,14.7
2017-09-24T06:05:02.751Z,14.7
2017-09-24T06:06:03.413Z,14.7
2017-09-24T06:07:04.122Z,14.8
2017-09-24T06:08:04.782Z,14.7
2017-09-24T06:09:05.444Z,14.8
2017-09-24T06:10:06.106Z,14.8
2017-09-24T06:11:06.767Z,14.8
2017-09-24T06:12:07.478Z,14.8
2017-09-24T06:13:08.138Z,14.9
2017-09-24T06:14:08.803Z,15.0
2017-09-24T06:15:09.460Z,14.9
2017-09-24T06:16:10.122Z,14.9
2017-09-24T06:17:10.832Z,15.0
2017-09-24T06:18:11.497Z,14.9
2017-09-24T06:19:12.156Z,14.8
2017-09-24T06:20:12.817Z,14.9
2017-09-24T06:21:13.481Z,15.0
2017-09-24T06:22:14.192Z,14.9
2017-09-24T06:23:14.853Z,15.0
2017-09-24T06:24:15.514Z,14.9
2017-09-24T06:25:16.176Z,14.9
2017-09-24T06:26:16.838Z,15.0
2017-09-24T06:27:17.548Z,15.0
2017-09-24T06:28:18.209Z,15.0
2017-09-24T06:29:18.868Z,15.0
2017-09-24T06:30:19.529Z,15.0
2017-09-24T06:31:20.191Z,15.0
2017-09-24T06:32:20.900Z,15.1
2017-09-24T06:33:21.560Z,15.1
2017-09-24T06:34:22.222Z,15.0
2017-09-24T06:35:22.882Z,15.0
2017-09-24T06:36:23.544Z,15.0
2017-09-24T06:37:24.254Z,15.1
2017-09-24T06:38:24.917Z,15.0
2017-09-24T06:39:25.580Z,15.0
2017-09-24T06:40:26.243Z,15.0
2017-09-24T06:41:26.904Z,15.0
2017-09-24T06:42:27.619Z,15.0
2017-09-24T06:43:28.281Z,15.0
2017-09-24T06:44:28.944Z,15.0
2017-09-24T06:45:29.606Z,15.0
2017-09-24T06:46:30.266Z,15.0
2017-09-24T06:47:30.978Z,15.1
2017-09-24T06:48:31.640Z,15.1
2017-09-24T06:49:32.302Z,15.2
2017-09-24T06:50:32.963Z,15.1
2017-09-24T06:51:33.625Z,15.2
2017-09-24T06:52:34.340Z,15.1
2017-09-24T06:53:35.002Z,15.2
2017-09-24T06:54:35.665Z,15.1
2017-09-24T06:55:36.326Z,15.1
2017-09-24T06:56:36.989Z,15.1
2017-09-24T06:57:37.735Z,15.2
2017-09-24T06:58:38.399Z,15.1
2017-09-24T06:59:39.060Z,15.1
2017-09-24T07:00:39.753Z,15.2
2017-09-24T07:01:40.387Z,15.1
2017-09-24T07:02:41.101Z,15.1
2017-09-24T07:03:41.766Z,15.1
2017-09-24T07:04:42.424Z,15.1
2017-09-24T07:05:43.084Z,15.1
2017-09-24T07:06:43.746Z,15.1
2017-09-24T07:07:44.459Z,15.0
2017-09-24T07:08:45.119Z,15.0
2017-09-24T07:09:45.780Z,15.0
2017-09-24T07:10:46.476Z,15.0
2017-09-24T07:11:47.139Z,15.0
2017-09-24T07:12:47.847Z,15.1
2017-09-24T07:13:48.509Z,15.1
2017-09-24T07:14:49.169Z,15.1
2017-09-24T07:15:49.829Z,15.1
2017-09-24T07:16:50.490Z,15.1
2017-09-24T07:17:51.405Z,15.0
2017-09-24T07:18:52.062Z,15.0
2017-09-24T07:19:52.724Z,14.9
2017-09-24T07:20:53.382Z,15.0
2017-09-24T07:21:54.045Z,15.0
2017-09-24T07:22:54.757Z,15.0
2017-09-24T07:23:55.419Z,15.0
2017-09-24T07:24:56.080Z,15.0
2017-09-24T07:25:56.739Z,15.0
2017-09-24T07:26:57.399Z,15.0
2017-09-24T07:27:58.111Z,15.1
2017-09-24T07:28:58.770Z,15.0
2017-09-24T07:29:59.432Z,14.9
2017-09-24T07:31:00.095Z,15.0
2017-09-24T07:32:00.801Z,15.0
2017-09-24T07:33:01.544Z,15.0
2017-09-24T07:34:02.203Z,14.9
2017-09-24T07:35:02.864Z,14.9
2017-09-24T07:36:03.530Z,14.9
2017-09-24T07:37:04.193Z,14.9
2017-09-24T07:38:04.904Z,15.0
2017-09-24T07:39:05.572Z,14.9
2017-09-24T07:40:06.227Z,14.9
2017-09-24T07:41:06.886Z,14.9
2017-09-24T07:42:07.547Z,14.8
2017-09-24T07:43:08.306Z,14.8
2017-09-24T07:44:09.002Z,14.8
2017-09-24T07:45:09.664Z,14.9
2017-09-24T07:46:10.325Z,14.9
2017-09-24T07:47:10.986Z,14.9
2017-09-24T07:48:11.698Z,14.9
2017-09-24T07:49:12.358Z,14.8
2017-09-24T07:50:13.019Z,14.8
2017-09-24T07:51:13.682Z,14.8
2017-09-24T07:52:14.345Z,14.8
2017-09-24T07:53:15.058Z,14.8
2017-09-24T07:54:15.720Z,14.8
2017-09-24T07:55:16.385Z,14.8
2017-09-24T07:56:17.048Z,14.8
2017-09-24T07:57:17.708Z,14.8
2017-09-24T07:58:18.423Z,14.7
2017-09-24T07:59:19.083Z,14.7
2017-09-24T08:00:19.744Z,14.8
2017-09-24T08:01:20.405Z,14.7
2017-09-24T08:02:21.067Z,14.8
2017-09-24T08:03:21.781Z,14.7
2017-09-24T08:04:22.444Z,14.8
2017-09-24T08:05:23.107Z,14.9
2017-09-24T08:06:23.777Z,14.8
2017-09-24T08:07:24.474Z,14.9
2017-09-24T08:08:25.186Z,14.8
2017-09-24T08:09:25.849Z,14.9
2017-09-24T08:10:26.516Z,15.0
2017-09-24T08:11:27.178Z,15.0
2017-09-24T08:12:27.838Z,15.0
2017-09-24T08:13:28.551Z,15.0
2017-09-24T08:14:29.215Z,15.1
2017-09-24T08:15:29.877Z,15.1
2017-09-24T08:16:30.580Z,15.1
2017-09-24T08:17:31.245Z,15.2
2017-09-24T08:18:32.209Z,15.2
2017-09-24T08:19:32.870Z,15.3
2017-09-24T08:20:33.533Z,15.4
2017-09-24T08:21:34.195Z,15.4
2017-09-24T08:22:34.859Z,15.5
2017-09-24T08:23:35.570Z,15.6
2017-09-24T08:24:36.235Z,15.6
2017-09-24T08:25:36.899Z,15.7
2017-09-24T08:26:37.563Z,15.7
2017-09-24T08:27:38.227Z,15.8
2017-09-24T08:28:38.943Z,15.9
2017-09-24T08:29:39.607Z,16.1
2017-09-24T08:30:40.274Z,16.1
2017-09-24T08:31:40.935Z,16.1
2017-09-24T08:32:41.599Z,16.4
2017-09-24T08:33:42.311Z,16.4
2017-09-24T08:34:42.974Z,16.4
2017-09-24T08:35:43.638Z,16.5
2017-09-24T08:36:44.301Z,16.5
2017-09-24T08:37:44.965Z,16.6
2017-09-24T08:38:45.678Z,16.7
2017-09-24T08:39:46.342Z,16.8
2017-09-24T08:40:47.005Z,16.9
2017-09-24T08:41:47.670Z,16.9
2017-09-24T08:42:48.335Z,17.0
2017-09-24T08:43:49.050Z,17.1
2017-09-24T08:44:49.712Z,17.1
2017-09-24T08:45:50.376Z,17.1
2017-09-24T08:46:51.041Z,17.2
2017-09-24T08:47:51.706Z,17.3
2017-09-24T08:48:52.422Z,17.3
2017-09-24T08:49:53.086Z,17.5
2017-09-24T08:50:53.752Z,17.5
2017-09-24T08:51:54.415Z,17.5
2017-09-24T08:52:55.080Z,17.6
2017-09-24T08:53:56.031Z,17.7
2017-09-24T08:54:56.695Z,17.8
2017-09-24T08:55:57.360Z,17.9
2017-09-24T08:56:58.025Z,18.0
2017-09-24T08:57:58.695Z,18.0
2017-09-24T08:58:59.409Z,18.1
2017-09-24T09:00:00.077Z,18.2
2017-09-24T09:01:00.741Z,18.3
2017-09-24T09:02:01.405Z,18.3
2017-09-24T09:03:02.111Z,18.3
2017-09-24T09:04:02.829Z,18.2
2017-09-24T09:05:03.497Z,18.3
2017-09-24T09:06:04.163Z,18.4
2017-09-24T09:07:04.866Z,18.5
2017-09-24T09:08:05.529Z,18.5
2017-09-24T09:09:06.246Z,18.6
2017-09-24T09:10:06.910Z,18.6
2017-09-24T09:11:07.577Z,18.7
2017-09-24T09:12:08.245Z,18.8
2017-09-24T09:13:08.911Z,18.9
2017-09-24T09:14:09.668Z,19.0
2017-09-24T09:15:10.330Z,19.1
2017-09-24T09:16:10.999Z,19.3
2017-09-24T09:17:11.663Z,19.4
2017-09-24T09:18:12.333Z,19.6
2017-09-24T09:19:13.050Z,19.5
2017-09-24T09:20:13.716Z,19.6
2017-09-24T09:21:14.379Z,19.7
2017-09-24T09:22:15.044Z,19.8
2017-09-24T09:23:15.707Z,19.7
2017-09-24T09:24:16.423Z,19.8
2017-09-24T09:25:17.088Z,19.8
2017-09-24T09:26:17.755Z,19.9
2017-09-24T09:27:18.423Z,20.0
2017-09-24T09:28:19.087Z,20.0
2017-09-24T09:29:19.805Z,19.9
2017-09-24T09:30:20.470Z,19.9
2017-09-24T09:31:21.138Z,20.0
2017-09-24T09:32:21.806Z,20.0
2017-09-24T09:33:22.473Z,20.0
2017-09-24T09:34:23.189Z,20.0
2017-09-24T09:35:23.863Z,19.9
2017-09-24T09:36:24.527Z,19.9
2017-09-24T09:37:25.192Z,19.9
2017-09-24T09:38:25.858Z,19.9
2017-09-24T09:39:26.574Z,19.8
2017-09-24T09:40:27.236Z,19.9
2017-09-24T09:41:27.903Z,19.9
2017-09-24T09:42:28.578Z,19.9
2017-09-24T09:43:29.275Z,19.8
2017-09-24T09:44:30.027Z,19.7
2017-09-24T09:45:30.696Z,19.9
2017-09-24T09:46:31.368Z,19.7
2017-09-24T09:47:32.031Z,19.7
2017-09-24T09:48:32.696Z,19.7
2017-09-24T09:49:33.411Z,19.5
2017-09-24T09:50:34.076Z,19.5
2017-09-24T09:51:34.742Z,19.5
2017-09-24T09:52:35.408Z,19.4
2017-09-24T09:53:36.074Z,19.4
2017-09-24T09:54:36.792Z,19.4
2017-09-24T09:55:37.458Z,19.4
2017-09-24T09:56:38.124Z,19.4
2017-09-24T09:57:38.788Z,19.5
2017-09-24T09:58:39.452Z,19.4
2017-09-24T09:59:40.170Z,19.4
2017-09-24T10:00:40.836Z,19.5
2017-09-24T10:01:41.503Z,19.4
2017-09-24T10:02:42.168Z,19.4
2017-09-24T10:03:42.835Z,19.4
2017-09-24T10:04:43.550Z,19.4
2017-09-24T10:05:44.213Z,19.4
2017-09-24T10:06:44.876Z,19.4
2017-09-24T10:07:45.543Z,19.4
2017-09-24T10:08:46.209Z,19.4
2017-09-24T10:09:46.932Z,19.4
2017-09-24T10:10:47.589Z,19.3
2017-09-24T10:11:48.253Z,19.2
2017-09-24T10:12:48.919Z,19.1
2017-09-24T10:13:49.586Z,19.1
2017-09-24T10:14:50.302Z,19.0
2017-09-24T10:15:50.969Z,18.8
2017-09-24T10:16:51.636Z,18.8
2017-09-24T10:17:52.304Z,18.9
2017-09-24T10:18:52.967Z,18.8
2017-09-24T10:19:53.680Z,18.8
2017-09-24T10:20:54.344Z,18.7
2017-09-24T10:21:55.010Z,18.6
2017-09-24T10:22:55.724Z,18.7
2017-09-24T10:23:56.376Z,18.8
2017-09-24T10:24:57.131Z,18.8
2017-09-24T10:25:57.797Z,18.8
2017-09-24T10:26:58.463Z,18.8
2017-09-24T10:27:59.129Z,18.8
2017-09-24T10:28:59.795Z,18.8
2017-09-24T10:30:00.509Z,19.0
2017-09-24T10:31:01.178Z,19.0
2017-09-24T10:32:01.841Z,19.0
2017-09-24T10:33:02.507Z,19.1
2017-09-24T10:34:03.180Z,19.1
2017-09-24T10:35:03.929Z,19.2
2017-09-24T10:36:04.592Z,19.3
2017-09-24T10:37:05.255Z,19.3
2017-09-24T10:38:05.922Z,19.4
2017-09-24T10:39:06.589Z,19.4
2017-09-24T10:40:07.305Z,19.5
2017-09-24T10:41:07.971Z,19.5
2017-09-24T10:42:08.643Z,19.5
2017-09-24T10:43:09.311Z,19.6
2017-09-24T10:44:09.973Z,19.5
2017-09-24T10:45:10.687Z,19.5
2017-09-24T10:46:11.353Z,19.5
2017-09-24T10:47:12.016Z,19.5
2017-09-24T10:48:12.685Z,19.5
2017-09-24T10:49:13.390Z,19.5
2017-09-24T10:50:14.141Z,19.4
2017-09-24T10:51:14.806Z,19.4
2017-09-24T10:52:15.471Z,19.2
2017-09-24T10:53:16.139Z,19.2
2017-09-24T10:54:16.805Z,19.1
2017-09-24T10:55:17.522Z,19.2
2017-09-24T10:56:18.187Z,19.2
2017-09-24T10:57:18.851Z,19.1
2017-09-24T10:58:19.516Z,19.1
2017-09-24T10:59:20.182Z,19.0
2017-09-24T11:00:20.898Z,19.0
2017-09-24T11:01:21.564Z,19.0
2017-09-24T11:02:22.230Z,19.0
2017-09-24T11:03:22.895Z,19.0
2017-09-24T11:04:23.597Z,19.0
2017-09-24T11:05:24.316Z,19.0
2017-09-24T11:06:24.983Z,19.0
2017-09-24T11:07:25.649Z,19.1
2017-09-24T11:08:26.317Z,19.1
2017-09-24T11:09:26.984Z,19.1
2017-09-24T11:10:27.751Z,19.1
2017-09-24T11:11:28.438Z,19.2
2017-09-24T11:12:29.106Z,19.2
2017-09-24T11:13:29.773Z,19.1
2017-09-24T11:14:30.441Z,19.2
2017-09-24T11:15:31.156Z,19.2
2017-09-24T11:16:31.823Z,19.2
2017-09-24T11:17:32.487Z,19.3
2017-09-24T11:18:33.151Z,19.2
2017-09-24T11:19:33.818Z,19.2
2017-09-24T11:20:34.789Z,19.1
2017-09-24T11:21:35.451Z,19.2
2017-09-24T11:22:36.116Z,19.1
2017-09-24T11:23:36.779Z,19.1
2017-09-24T11:24:37.445Z,19.1
2017-09-24T11:25:38.161Z,19.1
2017-09-24T11:26:38.825Z,19.0
2017-09-24T11:27:39.489Z,19.0
2017-09-24T11:28:40.153Z,19.0
2017-09-24T11:29:40.816Z,18.9
2017-09-24T11:30:41.732Z,18.8
2017-09-24T11:31:42.396Z,18.8
2017-09-24T11:32:43.095Z,18.9
2017-09-24T11:33:43.794Z,18.7
2017-09-24T11:34:44.459Z,18.5
2017-09-24T11:35:45.424Z,18.6
2017-09-24T11:36:46.087Z,18.5
2017-09-24T11:37:46.752Z,18.5
2017-09-24T11:38:47.414Z,18.4
2017-09-24T11:39:48.079Z,18.4
2017-09-24T11:40:48.794Z,18.4
2017-09-24T11:41:49.460Z,18.3
2017-09-24T11:42:50.124Z,18.3
2017-09-24T11:43:50.789Z,18.2
2017-09-24T11:44:51.453Z,18.3
2017-09-24T11:45:52.170Z,18.3
2017-09-24T11:46:52.837Z,18.2
2017-09-24T11:47:53.508Z,18.3
2017-09-24T11:48:54.205Z,18.3
2017-09-24T11:49:54.868Z,18.4
2017-09-24T11:50:55.832Z,18.4
2017-09-24T11:51:56.497Z,18.4
2017-09-24T11:52:57.165Z,18.5
2017-09-24T11:53:57.825Z,18.6
2017-09-24T11:54:58.491Z,18.7
2017-09-24T11:55:59.206Z,18.7
2017-09-24T11:56:59.872Z,18.8
2017-09-24T11:58:00.538Z,18.8
2017-09-24T11:59:01.205Z,18.9
2017-09-24T12:00:01.879Z,19.0
2017-09-24T12:01:02.625Z,19.1
2017-09-24T12:02:03.290Z,19.1
2017-09-24T12:03:03.955Z,19.2
2017-09-24T12:04:04.619Z,19.3
2017-09-24T12:05:05.285Z,19.4
2017-09-24T12:06:06.002Z,19.6
2017-09-24T12:07:06.667Z,19.7
2017-09-24T12:08:07.331Z,19.9
2017-09-24T12:09:08.000Z,20.0
2017-09-24T12:10:08.699Z,20.2
2017-09-24T12:11:09.413Z,20.4
2017-09-24T12:12:10.077Z,20.5
2017-09-24T12:13:10.742Z,20.6
2017-09-24T12:14:11.409Z,20.7
2017-09-24T12:15:12.075Z,20.8
2017-09-24T12:16:12.790Z,20.8
2017-09-24T12:17:13.455Z,20.8
2017-09-24T12:18:14.121Z,20.7
2017-09-24T12:19:14.788Z,20.8
2017-09-24T12:20:15.454Z,20.8
2017-09-24T12:21:16.172Z,20.8
2017-09-24T12:22:16.840Z,20.8
2017-09-24T12:23:17.507Z,20.9
2017-09-24T12:24:18.174Z,20.8
2017-09-24T12:25:18.839Z,20.8
2017-09-24T12:26:19.553Z,20.9
2017-09-24T12:27:20.220Z,20.9
2017-09-24T12:28:20.885Z,20.9
2017-09-24T12:29:21.553Z,20.9
2017-09-24T12:30:22.226Z,20.8
2017-09-24T12:31:22.938Z,20.7
2017-09-24T12:32:23.604Z,20.8
2017-09-24T12:33:24.269Z,20.8
2017-09-24T12:34:24.934Z,20.7
2017-09-24T12:35:25.602Z,20.6
2017-09-24T12:36:26.319Z,20.5
2017-09-24T12:37:26.986Z,20.4
2017-09-24T12:38:27.653Z,20.4
2017-09-24T12:39:28.320Z,20.3
2017-09-24T12:40:28.994Z,20.2
2017-09-24T12:41:29.702Z,20.2
2017-09-24T12:42:30.367Z,20.1
2017-09-24T12:43:31.032Z,19.9
2017-09-24T12:44:31.696Z,19.9
2017-09-24T12:45:32.362Z,19.8
2017-09-24T12:46:33.076Z,19.7
2017-09-24T12:47:33.775Z,19.6
2017-09-24T12:48:34.442Z,19.6
2017-09-24T12:49:35.108Z,19.6
2017-09-24T12:50:35.770Z,19.5
2017-09-24T12:51:36.484Z,19.5
2017-09-24T12:52:37.148Z,19.3
2017-09-24T12:53:37.811Z,19.3
2017-09-24T12:54:38.476Z,19.2
2017-09-24T12:55:39.138Z,19.1
2017-09-24T12:56:39.853Z,19.1
2017-09-24T12:57:40.518Z,19.1
2017-09-24T12:58:41.182Z,19.0
2017-09-24T12:59:41.848Z,18.9
2017-09-24T13:00:42.510Z,18.8
2017-09-24T13:01:43.222Z,18.7
2017-09-24T13:02:43.885Z,18.8
2017-09-24T13:03:44.550Z,18.7
2017-09-24T13:04:45.216Z,18.6
2017-09-24T13:05:45.878Z,18.6
2017-09-24T13:06:46.794Z,18.6
2017-09-24T13:07:47.457Z,18.6
2017-09-24T13:08:48.121Z,18.6
2017-09-24T13:09:48.787Z,18.5
2017-09-24T13:10:49.449Z,18.5
2017-09-24T13:11:50.165Z,18.4
2017-09-24T13:12:50.864Z,18.3
2017-09-24T13:13:51.530Z,18.3
2017-09-24T13:14:52.197Z,18.3
2017-09-24T13:15:52.863Z,18.3
2017-09-24T13:16:53.577Z,18.3
2017-09-24T13:17:54.243Z,18.3
2017-09-24T13:18:54.909Z,18.3
2017-09-24T13:19:55.573Z,18.3
2017-09-24T13:20:56.234Z,18.4
2017-09-24T13:21:56.948Z,18.4
2017-09-24T13:22:57.612Z,18.5
2017-09-24T13:23:58.278Z,18.5
2017-09-24T13:24:58.943Z,18.6
2017-09-24T13:25:59.606Z,18.6
2017-09-24T13:27:00.323Z,18.7
2017-09-24T13:28:00.989Z,18.6